createdAt,value
2023-02-24T00:02:05.100Z,97288.27
2023-02-24T00:04:40.979Z,97283.81
2023-02-24T00:07:11.186Z,97280.31
2023-02-24T00:09:40.372Z,97282.16
2023-02-24T00:12:11.712Z,97277.84
2023-02-24T00:14:42.332Z,97277.25
2023-02-24T00:17:14.891Z,97275.34
2023-02-24T00:19:43.991Z,97273.70
2023-02-24T00:22:13.351Z,97272.21
2023-02-24T00:24:42.598Z,97267.38
2023-02-24T00:27:12.580Z,97267.06
2023-02-24T00:29:42.447Z,97262.40
2023-02-24T00:32:15.293Z,97261.52
2023-02-24T00:34:44.246Z,97259.71
2023-02-24T00:37:15.356Z,97261.88
2023-02-24T00:39:46.508Z,97257.31
2023-02-24T00:42:15.226Z,97257.38
2023-02-24T00:44:47.466Z,97254.84
2023-02-24T00:47:19.224Z,97247.04
2023-02-24T00:49:48.723Z,97246.40
2023-02-24T00:52:19.157Z,97243.04
2023-02-24T00:54:49.183Z,97242.05
2023-02-24T00:57:18.908Z,97241.22
2023-02-24T00:59:52.008Z,97236.48
2023-02-24T01:02:22.132Z,97231.88
2023-02-24T01:04:52.378Z,97231.95
2023-02-24T01:07:21.190Z,97229.11
2023-02-24T01:09:51.024Z,97225.77
2023-02-24T01:12:22.643Z,97221.89
2023-02-24T01:14:53.134Z,97217.23
2023-02-24T01:17:24.184Z,97215.26
2023-02-24T01:19:53.394Z,97215.55
2023-02-24T01:22:24.293Z,97213.98
2023-02-24T01:24:54.369Z,97212.77
2023-02-24T01:27:23.439Z,97209.44
2023-02-24T01:29:51.990Z,97205.80
2023-02-24T01:32:24.836Z,97203.32
2023-02-24T01:34:54.633Z,97201.90
2023-02-24T01:37:24.519Z,97200.98
2023-02-24T01:39:53.582Z,97204.78
2023-02-24T01:42:24.275Z,97199.63
2023-02-24T01:44:54.327Z,97196.75
2023-02-24T01:47:24.140Z,97197.31
2023-02-24T01:49:55.783Z,97193.58
2023-02-24T01:52:39.264Z,97194.11
2023-02-24T01:55:12.251Z,97191.17
2023-02-24T01:57:42.467Z,97190.20
2023-02-24T02:00:23.048Z,97189.64
2023-02-24T02:02:53.637Z,97187.07
2023-02-24T02:05:26.392Z,97186.02
2023-02-24T02:07:58.697Z,97182.94
2023-02-24T02:10:29.860Z,97182.88
2023-02-24T02:13:01.485Z,97182.34
2023-02-24T02:15:34.107Z,97179.25
2023-02-24T02:18:14.657Z,97181.84
2023-02-24T02:21:06.075Z,97177.73
2023-02-24T02:23:38.427Z,97176.41
2023-02-24T02:26:33.963Z,97177.04
2023-02-24T02:29:22.991Z,97173.50
2023-02-24T02:31:51.767Z,97171.98
2023-02-24T02:34:43.774Z,97168.88
2023-02-24T02:37:33.810Z,97164.10
2023-02-24T02:40:16.760Z,97160.84
2023-02-24T02:42:49.491Z,97152.73
2023-02-24T02:45:41.339Z,97153.27
2023-02-24T02:48:16.349Z,97146.23
2023-02-24T02:50:56.949Z,97148.52
2023-02-24T02:53:31.112Z,97149.58
2023-02-24T02:56:04.438Z,97147.64
2023-02-24T02:58:36.976Z,97148.33
2023-02-24T03:01:08.421Z,97148.83
2023-02-24T03:03:40.714Z,97151.02
2023-02-24T03:06:17.137Z,97149.09
2023-02-24T03:08:53.912Z,97150.27
2023-02-24T03:11:24.211Z,97150.46
2023-02-24T03:13:55.499Z,97147.35
2023-02-24T03:16:27.538Z,97147.30
2023-02-24T03:19:01.167Z,97146.73
2023-02-24T03:21:40.030Z,97143.90
2023-02-24T03:24:11.085Z,97140.64
2023-02-24T03:26:54.097Z,97139.09
2023-02-24T03:29:31.622Z,97139.11
2023-02-24T03:32:06.426Z,97138.11
2023-02-24T03:34:48.143Z,97135.85
2023-02-24T03:37:18.226Z,97136.63
2023-02-24T03:39:52.469Z,97133.39
2023-02-24T03:42:26.397Z,97135.54
2023-02-24T03:44:59.419Z,97132.17
2023-02-24T03:47:29.544Z,97131.04
2023-02-24T03:50:00.787Z,97129.08
2023-02-24T03:52:56.192Z,97123.79
2023-02-24T03:55:38.942Z,97122.30
2023-02-24T03:58:31.764Z,97118.05
2023-02-24T04:01:23.170Z,97113.41
2023-02-24T04:03:52.888Z,97112.30
2023-02-24T04:06:56.520Z,97108.70
2023-02-24T04:09:40.459Z,97103.02
2023-02-24T04:12:44.064Z,97103.02
2023-02-24T04:15:21.737Z,97099.27
2023-02-24T04:17:57.860Z,97094.94
2023-02-24T04:20:33.031Z,97096.96
2023-02-24T04:23:05.804Z,97092.68
2023-02-24T04:25:35.315Z,97088.52
2023-02-24T04:28:08.344Z,97088.15
2023-02-24T04:30:41.746Z,97080.09
2023-02-24T04:33:12.586Z,97078.20
2023-02-24T04:35:41.990Z,97075.82
2023-02-24T04:38:13.560Z,97071.83
2023-02-24T04:40:43.293Z,97071.23
2023-02-24T04:43:13.626Z,97064.83
2023-02-24T04:45:42.627Z,97063.31
2023-02-24T04:48:14.235Z,97061.36
2023-02-24T04:50:44.246Z,97058.59
2023-02-24T04:53:15.320Z,97058.61
2023-02-24T04:55:49.225Z,97057.49
2023-02-24T04:58:20.718Z,97056.30
2023-02-24T05:00:53.089Z,97056.38
2023-02-24T05:03:23.638Z,97058.45
2023-02-24T05:05:57.252Z,97059.57
2023-02-24T05:08:27.506Z,97055.44
2023-02-24T05:11:01.329Z,97055.83
2023-02-24T05:13:32.250Z,97052.96
2023-02-24T05:16:06.527Z,97051.45
2023-02-24T05:18:38.647Z,97049.42
2023-02-24T05:21:27.911Z,97052.91
2023-02-24T05:23:59.364Z,97052.71
2023-02-24T05:26:28.557Z,97056.66
2023-02-24T05:29:00.017Z,97053.47
2023-02-24T05:31:30.122Z,97056.15
2023-02-24T05:34:04.168Z,97053.52
2023-02-24T05:36:34.603Z,97052.94
2023-02-24T05:39:12.752Z,97058.62
2023-02-24T05:41:42.596Z,97057.34
2023-02-24T05:44:12.833Z,97058.05
2023-02-24T05:46:42.382Z,97059.64
2023-02-24T05:49:15.795Z,97056.99
2023-02-24T05:51:55.404Z,97055.83
2023-02-24T05:54:31.315Z,97049.48
2023-02-24T05:57:02.025Z,97048.11
2023-02-24T05:59:34.200Z,97048.36
2023-02-24T06:02:09.596Z,97053.48
2023-02-24T06:04:51.821Z,97049.83
2023-02-24T06:07:23.100Z,97048.78
2023-02-24T06:09:57.647Z,97047.06
2023-02-24T06:12:27.620Z,97045.64
2023-02-24T06:14:58.685Z,97044.06
2023-02-24T06:17:28.094Z,97041.09
2023-02-24T06:19:56.978Z,97044.00
2023-02-24T06:22:26.972Z,97044.08
2023-02-24T06:24:57.216Z,97042.48
2023-02-24T06:27:25.764Z,97042.30
2023-02-24T06:29:55.108Z,97042.67
2023-02-24T06:32:25.651Z,97046.92
2023-02-24T06:34:55.257Z,97050.40
2023-02-24T06:37:23.596Z,97053.00
2023-02-24T06:39:52.046Z,97054.23
2023-02-24T06:42:20.586Z,97061.10
2023-02-24T06:44:50.713Z,97056.75
2023-02-24T06:47:19.245Z,97054.41
2023-02-24T06:49:48.250Z,97049.41
2023-02-24T06:52:19.388Z,97050.02
2023-02-24T06:54:48.824Z,97048.41
2023-02-24T06:57:18.107Z,97045.77
2023-02-24T06:59:46.598Z,97044.03
2023-02-24T07:02:17.951Z,97039.55
2023-02-24T07:04:46.405Z,97039.01
2023-02-24T07:07:14.867Z,97039.48
2023-02-24T07:09:45.752Z,97042.45
2023-02-24T07:12:15.809Z,97039.80
2023-02-24T07:14:44.216Z,97039.48
2023-02-24T07:17:14.929Z,97038.34
2023-02-24T07:19:44.426Z,97032.14
2023-02-24T07:22:15.077Z,97029.31
2023-02-24T07:24:46.650Z,97026.52
2023-02-24T07:27:22.890Z,97027.95
2023-02-24T07:29:53.657Z,97028.48
2023-02-24T07:32:25.817Z,97021.26
2023-02-24T07:34:54.598Z,97022.50
2023-02-24T07:37:24.597Z,97026.33
2023-02-24T07:39:53.056Z,97028.41
2023-02-24T07:42:21.469Z,97025.35
2023-02-24T07:44:56.200Z,97025.63
2023-02-24T07:47:25.489Z,97014.84
2023-02-24T07:49:55.614Z,97016.97
2023-02-24T07:52:24.502Z,97018.91
2023-02-24T07:54:53.229Z,97006.83
2023-02-24T07:57:25.441Z,97003.79
2023-02-24T07:59:54.396Z,97004.67
2023-02-24T08:02:24.113Z,97001.41
2023-02-24T08:04:52.949Z,96996.73
2023-02-24T08:07:25.382Z,96996.35
2023-02-24T08:10:12.782Z,96999.13
2023-02-24T08:12:45.126Z,96999.30
2023-02-24T08:15:24.426Z,96992.45
2023-02-24T08:17:54.288Z,96991.60
2023-02-24T08:20:25.505Z,96991.62
2023-02-24T08:22:55.126Z,96986.20
2023-02-24T08:25:24.987Z,96984.33
2023-02-24T08:28:07.363Z,96984.09
2023-02-24T08:30:45.902Z,96984.35
2023-02-24T08:33:20.492Z,96983.77
2023-02-24T08:36:01.819Z,96973.02
2023-02-24T08:38:42.626Z,96975.05
2023-02-24T08:41:13.384Z,96974.98
2023-02-24T08:43:42.558Z,96967.80
2023-02-24T08:46:13.988Z,96965.52
2023-02-24T08:48:45.387Z,96953.58
2023-02-24T08:51:16.108Z,96951.84
2023-02-24T08:53:47.277Z,96949.54
2023-02-24T08:56:24.399Z,96943.90
2023-02-24T08:59:06.034Z,96938.36
2023-02-24T09:01:37.023Z,96940.39
2023-02-24T09:04:09.761Z,96938.05
2023-02-24T09:06:38.093Z,96941.39
2023-02-24T09:09:19.245Z,96933.36
2023-02-24T09:11:49.608Z,96942.79
2023-02-24T09:14:28.941Z,96936.06
2023-02-24T09:17:11.858Z,96933.64
2023-02-24T09:19:47.682Z,96931.89
2023-02-24T09:22:31.637Z,96934.27
2023-02-24T09:25:24.428Z,96926.14
2023-02-24T09:28:08.452Z,96919.75
2023-02-24T09:30:39.083Z,96913.92
2023-02-24T09:33:18.329Z,96916.20
2023-02-24T09:35:47.204Z,96916.92
2023-02-24T09:38:17.238Z,96919.28
2023-02-24T09:40:49.499Z,96915.00
2023-02-24T09:43:24.732Z,96911.33
2023-02-24T09:45:59.726Z,96909.30
2023-02-24T09:48:44.108Z,96903.86
2023-02-24T09:51:22.268Z,96903.17
2023-02-24T09:53:54.008Z,96903.65
2023-02-24T09:56:44.734Z,96898.30
2023-02-24T09:59:26.437Z,96892.23
2023-02-24T10:01:55.283Z,96890.55
2023-02-24T10:05:07.649Z,96886.12
2023-02-24T10:07:44.203Z,96887.05
2023-02-24T10:10:30.473Z,96875.02
2023-02-24T10:13:03.350Z,96872.88
2023-02-24T10:15:59.508Z,96870.22
2023-02-24T10:18:58.449Z,96874.59
2023-02-24T10:21:48.537Z,96865.75
2023-02-24T10:24:17.328Z,96859.66
2023-02-24T10:27:00.840Z,96851.37
2023-02-24T10:29:51.088Z,96849.77
2023-02-24T10:32:32.045Z,96848.05
2023-02-24T10:35:02.048Z,96842.11
2023-02-24T10:37:31.043Z,96839.16
2023-02-24T10:40:11.641Z,96832.65
2023-02-24T10:42:49.086Z,96831.09
2023-02-24T10:45:22.029Z,96828.03
2023-02-24T10:48:00.814Z,96824.61
2023-02-24T10:50:32.822Z,96819.30
2023-02-24T10:53:03.408Z,96810.65
2023-02-24T10:55:43.986Z,96805.13
2023-02-24T10:58:37.955Z,96799.23
2023-02-24T11:01:21.642Z,96797.91
2023-02-24T11:04:24.124Z,96790.17
2023-02-24T11:07:09.902Z,96783.47
2023-02-24T11:09:52.695Z,96778.20
2023-02-24T11:12:43.590Z,96772.22
2023-02-24T11:15:47.039Z,96770.79
2023-02-24T11:18:25.974Z,96768.20
2023-02-24T11:20:56.819Z,96762.48
2023-02-24T11:23:35.363Z,96758.87
2023-02-24T11:26:24.192Z,96756.11
2023-02-24T11:29:20.167Z,96745.50
2023-02-24T11:32:00.644Z,96737.46
2023-02-24T11:34:38.114Z,96731.45
2023-02-24T11:37:14.752Z,96728.86
2023-02-24T11:39:53.703Z,96726.92
2023-02-24T11:42:25.957Z,96728.38
2023-02-24T11:44:54.397Z,96727.05
2023-02-24T11:47:27.287Z,96725.36
2023-02-24T11:50:04.997Z,96717.19
2023-02-24T11:52:36.497Z,96711.88
2023-02-24T11:55:12.691Z,96714.67
2023-02-24T11:57:48.512Z,96713.55
2023-02-24T12:00:29.317Z,96712.66
2023-02-24T12:03:03.886Z,96708.75
2023-02-24T12:05:39.482Z,96709.15
2023-02-24T12:08:14.333Z,96705.66
2023-02-24T12:10:54.228Z,96709.90
2023-02-24T12:13:34.794Z,96704.44
2023-02-24T12:16:08.181Z,96706.04
2023-02-24T12:18:39.628Z,96702.13
2023-02-24T12:21:12.785Z,96700.20
2023-02-24T12:23:44.101Z,96691.21
2023-02-24T12:26:15.781Z,96687.64
2023-02-24T12:28:57.273Z,96681.84
2023-02-24T12:31:26.167Z,96676.98
2023-02-24T12:34:08.987Z,96675.55
2023-02-24T12:36:46.495Z,96677.81
2023-02-24T12:39:42.308Z,96678.23
2023-02-24T12:42:17.580Z,96672.83
2023-02-24T12:45:05.327Z,96672.87
2023-02-24T12:47:33.669Z,96670.19
2023-02-24T12:50:07.113Z,96669.39
2023-02-24T12:52:50.784Z,96662.92
2023-02-24T12:55:51.768Z,96662.52
2023-02-24T12:58:22.539Z,96661.36
2023-02-24T13:01:09.597Z,96665.33
2023-02-24T13:03:44.216Z,96655.82
2023-02-24T13:06:35.790Z,96654.17
2023-02-24T13:09:23.074Z,96650.79
2023-02-24T13:12:06.824Z,96646.47
2023-02-24T13:14:36.896Z,96644.88
2023-02-24T13:17:06.665Z,96643.91
2023-02-24T13:19:35.106Z,96640.55
2023-02-24T13:22:11.394Z,96636.26
2023-02-24T13:24:41.816Z,96636.84
2023-02-24T13:27:12.973Z,96630.58
2023-02-24T13:29:46.012Z,96628.59
2023-02-24T13:32:37.427Z,96629.55
2023-02-24T13:35:09.270Z,96627.60
2023-02-24T13:37:39.036Z,96621.98
2023-02-24T13:40:33.803Z,96619.62
2023-02-24T13:43:05.003Z,96620.80
2023-02-24T13:45:37.638Z,96619.61
2023-02-24T13:48:15.308Z,96616.88
2023-02-24T13:50:43.751Z,96617.67
2023-02-24T13:53:30.995Z,96613.60
2023-02-24T13:55:59.636Z,96611.48
2023-02-24T13:58:46.932Z,96609.52
2023-02-24T14:01:17.312Z,96606.79
2023-02-24T14:03:49.853Z,96608.11
2023-02-24T14:06:23.255Z,96600.79
2023-02-24T14:08:55.287Z,96592.27
2023-02-24T14:11:27.143Z,96593.54
2023-02-24T14:13:57.294Z,96595.45
2023-02-24T14:16:28.058Z,96589.59
2023-02-24T14:18:58.184Z,96591.04
2023-02-24T14:21:28.342Z,96589.33
2023-02-24T14:23:58.463Z,96587.56
2023-02-24T14:26:27.408Z,96588.55
2023-02-24T14:29:03.560Z,96586.46
2023-02-24T14:31:32.038Z,96584.67
2023-02-24T14:34:03.053Z,96574.73
2023-02-24T14:36:39.092Z,96572.73
2023-02-24T14:39:18.112Z,96572.22
2023-02-24T14:41:47.804Z,96572.42
2023-02-24T14:44:21.637Z,96572.49
2023-02-24T14:46:51.927Z,96577.66
2023-02-24T14:49:22.295Z,96579.13
2023-02-24T14:51:55.186Z,96575.70
2023-02-24T14:54:34.653Z,96577.48
2023-02-24T14:57:03.626Z,96581.54
2023-02-24T14:59:35.303Z,96576.17
2023-02-24T15:02:05.924Z,96571.23
2023-02-24T15:04:43.995Z,96567.11
2023-02-24T15:07:18.429Z,96564.30
2023-02-24T15:09:50.293Z,96561.04
2023-02-24T15:12:27.717Z,96557.36
2023-02-24T15:15:01.565Z,96552.98
2023-02-24T15:17:30.383Z,96549.13
2023-02-24T15:19:59.361Z,96545.42
2023-02-24T15:22:33.767Z,96546.23
2023-02-24T15:25:16.659Z,96542.05
2023-02-24T15:27:51.101Z,96540.47
2023-02-24T15:30:31.952Z,96533.63
2023-02-24T15:33:02.669Z,96531.74
2023-02-24T15:35:33.464Z,96529.11
2023-02-24T15:38:02.497Z,96530.95
2023-02-24T15:40:32.103Z,96527.31
2023-02-24T15:43:07.819Z,96528.33
2023-02-24T15:45:38.282Z,96527.54
2023-02-24T15:48:20.755Z,96527.62
2023-02-24T15:50:50.651Z,96528.23
2023-02-24T15:53:19.045Z,96529.05
2023-02-24T15:55:47.447Z,96527.17
2023-02-24T15:58:21.344Z,96528.07
2023-02-24T16:00:52.681Z,96525.31
2023-02-24T16:03:21.129Z,96522.85
2023-02-24T16:05:49.523Z,96521.90
2023-02-24T16:08:19.666Z,96518.78
2023-02-24T16:10:50.718Z,96518.39
2023-02-24T16:13:22.146Z,96518.77
2023-02-24T16:15:51.415Z,96519.32
2023-02-24T16:18:22.453Z,96522.00
2023-02-24T16:20:55.669Z,96522.89
2023-02-24T16:23:26.181Z,96513.52
2023-02-24T16:25:56.809Z,96517.70
2023-02-24T16:28:26.953Z,96512.31
2023-02-24T16:30:55.608Z,96517.97
2023-02-24T16:33:24.454Z,96514.91
2023-02-24T16:35:56.056Z,96510.04
2023-02-24T16:38:26.865Z,96511.16
2023-02-24T16:40:55.663Z,96508.75
2023-02-24T16:43:25.056Z,96510.06
2023-02-24T16:45:54.844Z,96512.23
2023-02-24T16:48:25.531Z,96511.96
2023-02-24T16:50:54.520Z,96511.20
2023-02-24T16:53:24.243Z,96511.71
2023-02-24T16:55:53.113Z,96513.52
2023-02-24T16:58:23.475Z,96512.95
2023-02-24T17:00:53.784Z,96513.44
2023-02-24T17:03:26.479Z,96512.20
2023-02-24T17:05:55.611Z,96512.81
2023-02-24T17:08:24.201Z,96515.70
2023-02-24T17:10:52.505Z,96511.19
2023-02-24T17:13:23.696Z,96509.60
2023-02-24T17:15:57.542Z,96513.09
2023-02-24T17:18:26.481Z,96512.34
2023-02-24T17:20:54.804Z,96512.83
2023-02-24T17:23:23.537Z,96506.45
2023-02-24T17:25:56.312Z,96508.18
2023-02-24T17:28:25.441Z,96501.63
2023-02-24T17:30:54.486Z,96500.27
2023-02-24T17:33:23.579Z,96498.96
2023-02-24T17:35:51.885Z,96499.58
2023-02-24T17:38:21.745Z,96499.06
2023-02-24T17:40:52.948Z,96497.20
2023-02-24T17:43:21.394Z,96496.00
2023-02-24T17:45:51.968Z,96494.63
2023-02-24T17:48:21.136Z,96489.42
2023-02-24T17:50:52.181Z,96486.35
2023-02-24T17:53:20.637Z,96486.45
2023-02-24T17:56:01.919Z,96483.44
2023-02-24T17:58:30.837Z,96480.80
2023-02-24T18:01:02.466Z,96480.95
2023-02-24T18:03:32.152Z,96473.98
2023-02-24T18:06:05.670Z,96473.98
2023-02-24T18:08:35.175Z,96477.39
2023-02-24T18:11:04.415Z,96470.04
2023-02-24T18:13:33.473Z,96464.16
2023-02-24T18:16:02.012Z,96466.88
2023-02-24T18:18:30.537Z,96463.64
2023-02-24T18:21:02.890Z,96463.69
2023-02-24T18:23:32.199Z,96465.31
2023-02-24T18:26:04.875Z,96461.80
2023-02-24T18:28:33.332Z,96462.44
2023-02-24T18:31:13.779Z,96464.02
2023-02-24T18:33:42.710Z,96460.45
2023-02-24T18:36:11.314Z,96459.89
2023-02-24T18:38:40.843Z,96460.70
2023-02-24T18:41:18.602Z,96455.38
2023-02-24T18:43:48.413Z,96452.33
2023-02-24T18:46:17.487Z,96459.16
2023-02-24T18:48:46.305Z,96457.63
2023-02-24T18:51:17.503Z,96450.74
2023-02-24T18:53:46.436Z,96450.17
2023-02-24T18:56:20.018Z,96446.09
2023-02-24T18:58:55.097Z,96449.66
2023-02-24T19:01:25.618Z,96448.14
2023-02-24T19:03:55.521Z,96447.51
2023-02-24T19:06:27.166Z,96442.36
2023-02-24T19:08:59.004Z,96442.44
2023-02-24T19:11:27.816Z,96443.39
2023-02-24T19:13:56.410Z,96442.98
2023-02-24T19:16:25.121Z,96446.90
2023-02-24T19:18:55.230Z,96443.11
2023-02-24T19:21:24.527Z,96440.93
2023-02-24T19:23:53.396Z,96444.98
2023-02-24T19:26:24.110Z,96443.16
2023-02-24T19:28:53.630Z,96438.38
2023-02-24T19:31:24.221Z,96441.36
2023-02-24T19:33:53.660Z,96438.20
2023-02-24T19:36:22.791Z,96437.42
2023-02-24T19:38:51.757Z,96435.99
2023-02-24T19:41:20.468Z,96437.38
2023-02-24T19:43:49.218Z,96435.84
2023-02-24T19:46:18.742Z,96429.52
2023-02-24T19:48:48.748Z,96428.08
2023-02-24T19:51:19.074Z,96422.48
2023-02-24T19:53:47.790Z,96426.85
2023-02-24T19:56:16.346Z,96422.77
2023-02-24T19:58:45.739Z,96418.79
2023-02-24T20:01:14.819Z,96417.80
2023-02-24T20:03:43.346Z,96416.59
2023-02-24T20:06:41.390Z,96419.33
2023-02-24T20:09:12.022Z,96420.50
2023-02-24T20:11:40.454Z,96418.26
2023-02-24T20:14:10.106Z,96416.39
2023-02-24T20:16:39.547Z,96409.61
2023-02-24T20:19:09.385Z,96402.55
2023-02-24T20:21:41.092Z,96403.48
2023-02-24T20:24:13.236Z,96405.71
2023-02-24T20:26:43.481Z,96399.09
2023-02-24T20:29:12.469Z,96389.77
2023-02-24T20:31:41.878Z,96387.48
2023-02-24T20:34:10.957Z,96385.30
2023-02-24T20:36:41.087Z,96381.42
2023-02-24T20:39:12.596Z,96373.39
2023-02-24T20:41:41.046Z,96373.33
2023-02-24T20:44:09.921Z,96367.29
2023-02-24T20:46:38.410Z,96363.49
2023-02-24T20:49:09.119Z,96361.68
2023-02-24T20:51:38.431Z,96362.58
2023-02-24T20:54:08.427Z,96360.61
2023-02-24T20:56:37.766Z,96355.73
2023-02-24T20:59:16.965Z,96348.45
2023-02-24T21:01:47.599Z,96345.17
2023-02-24T21:04:17.307Z,96337.45
2023-02-24T21:06:48.266Z,96335.38
2023-02-24T21:09:16.952Z,96335.89
2023-02-24T21:11:45.423Z,96333.72
2023-02-24T21:14:17.011Z,96328.21
2023-02-24T21:16:46.472Z,96330.83
2023-02-24T21:19:14.879Z,96325.13
2023-02-24T21:21:43.218Z,96322.06
2023-02-24T21:24:11.621Z,96326.77
2023-02-24T21:26:40.187Z,96323.04
2023-02-24T21:29:08.647Z,96315.08
2023-02-24T21:31:37.072Z,96316.44
2023-02-24T21:34:05.721Z,96318.48
2023-02-24T21:36:34.207Z,96317.27
2023-02-24T21:39:02.996Z,96317.70
2023-02-24T21:41:31.371Z,96319.80
2023-02-24T21:44:00.815Z,96310.05
2023-02-24T21:46:29.390Z,96304.82
2023-02-24T21:48:58.504Z,96308.98
2023-02-24T21:51:28.071Z,96299.30
2023-02-24T21:53:57.567Z,96297.95
2023-02-24T21:56:27.393Z,96299.19
2023-02-24T21:59:03.228Z,96304.07
2023-02-24T22:01:49.808Z,96298.64
2023-02-24T22:04:19.442Z,96295.00
2023-02-24T22:06:47.990Z,96292.23
2023-02-24T22:09:20.104Z,96289.95
2023-02-24T22:11:49.694Z,96288.86
2023-02-24T22:14:18.384Z,96290.58
2023-02-24T22:16:47.278Z,96286.21
2023-02-24T22:19:15.754Z,96291.62
2023-02-24T22:21:44.093Z,96292.02
2023-02-24T22:24:13.947Z,96294.86
2023-02-24T22:26:42.834Z,96279.40
2023-02-24T22:29:11.421Z,96283.87
2023-02-24T22:31:44.064Z,96281.11
2023-02-24T22:34:14.636Z,96289.30
2023-02-24T22:36:43.536Z,96289.91
2023-02-24T22:39:16.777Z,96283.80
2023-02-24T22:41:47.261Z,96282.39
2023-02-24T22:44:19.631Z,96278.18
2023-02-24T22:46:48.717Z,96275.10
2023-02-24T22:49:17.822Z,96273.09
2023-02-24T22:51:46.182Z,96268.48
2023-02-24T22:54:15.383Z,96262.86
2023-02-24T22:56:45.193Z,96255.52
2023-02-24T22:59:13.891Z,96256.30
2023-02-24T23:01:43.031Z,96257.13
2023-02-24T23:04:14.015Z,96256.06
2023-02-24T23:06:43.310Z,96253.02
2023-02-24T23:09:13.662Z,96250.63
2023-02-24T23:11:42.198Z,96244.92
2023-02-24T23:14:14.038Z,96250.25
2023-02-24T23:16:44.752Z,96247.79
2023-02-24T23:19:16.590Z,96249.34
2023-02-24T23:21:46.479Z,96248.12
2023-02-24T23:24:15.581Z,96245.70
2023-02-24T23:26:46.114Z,96246.00
2023-02-24T23:29:16.015Z,96244.12
2023-02-24T23:31:44.624Z,96247.89
2023-02-24T23:34:13.515Z,96245.14
2023-02-24T23:36:43.840Z,96250.39
2023-02-24T23:39:14.520Z,96244.64
2023-02-24T23:41:43.569Z,96233.08
2023-02-24T23:44:12.840Z,96236.05
2023-02-24T23:46:44.745Z,96235.58
2023-02-24T23:49:13.227Z,96235.44
2023-02-24T23:51:48.455Z,96232.40
2023-02-24T23:54:18.607Z,96226.34
2023-02-24T23:56:48.085Z,96222.45
2023-02-24T23:59:17.144Z,96226.12
